sensor_id;sensor_type;location;lat;lon;timestamp;P1;durP1;ratioP1;P2;durP2;ratioP2
7166;SDS011;3625;51.762;14.320;2023-07-13T00:00:32;2.10;;;1.80;;
7166;SDS011;3625;51.762;14.320;2023-07-13T00:03:00;1.83;;;1.73;;
7166;SDS011;3625;51.762;14.320;2023-07-13T00:05:30;2.40;;;2.20;;
7166;SDS011;3625;51.762;14.320;2023-07-13T00:07:59;2.00;;;1.85;;
7166;SDS011;3625;51.762;14.320;2023-07-13T00:10:28;2.45;;;1.90;;
7166;SDS011;3625;51.762;14.320;2023-07-13T00:12:56;2.30;;;1.85;;
7166;SDS011;3625;51.762;14.320;2023-07-13T00:15:25;2.88;;;1.85;;
7166;SDS011;3625;51.762;14.320;2023-07-13T00:17:56;2.08;;;1.80;;
7166;SDS011;3625;51.762;14.320;2023-07-13T00:20:27;2.28;;;2.08;;
7166;SDS011;3625;51.762;14.320;2023-07-13T00:22:57;1.98;;;1.80;;
7166;SDS011;3625;51.762;14.320;2023-07-13T00:25:26;3.97;;;2.47;;
7166;SDS011;3625;51.762;14.320;2023-07-13T00:27:55;2.80;;;1.75;;
7166;SDS011;3625;51.762;14.320;2023-07-13T00:30:24;2.30;;;1.80;;
7166;SDS011;3625;51.762;14.320;2023-07-13T00:32:53;1.80;;;1.70;;
7166;SDS011;3625;51.762;14.320;2023-07-13T00:35:41;4.03;;;2.10;;
7166;SDS011;3625;51.762;14.320;2023-07-13T00:38:12;1.95;;;1.85;;
7166;SDS011;3625;51.762;14.320;2023-07-13T00:40:41;2.33;;;2.13;;
7166;SDS011;3625;51.762;14.320;2023-07-13T00:43:11;2.30;;;2.00;;
7166;SDS011;3625;51.762;14.320;2023-07-13T00:48:47;2.22;;;2.03;;
7166;SDS011;3625;51.762;14.320;2023-07-13T00:51:19;5.80;;;2.05;;
7166;SDS011;3625;51.762;14.320;2023-07-13T00:54:00;1.98;;;1.77;;
7166;SDS011;3625;51.762;14.320;2023-07-13T00:56:34;4.72;;;2.00;;
7166;SDS011;3625;51.762;14.320;2023-07-13T00:59:05;1.92;;;1.83;;
7166;SDS011;3625;51.762;14.320;2023-07-13T01:01:40;2.40;;;2.20;;
7166;SDS011;3625;51.762;14.320;2023-07-13T01:04:09;2.08;;;1.92;;
7166;SDS011;3625;51.762;14.320;2023-07-13T01:06:39;3.63;;;2.15;;
7166;SDS011;3625;51.762;14.320;2023-07-13T01:09:12;2.67;;;2.20;;
7166;SDS011;3625;51.762;14.320;2023-07-13T01:11:42;2.67;;;2.40;;
7166;SDS011;3625;51.762;14.320;2023-07-13T01:14:12;3.25;;;1.73;;
7166;SDS011;3625;51.762;14.320;2023-07-13T01:16:42;3.50;;;2.35;;
7166;SDS011;3625;51.762;14.320;2023-07-13T01:19:17;2.28;;;2.05;;
7166;SDS011;3625;51.762;14.320;2023-07-13T01:22:04;3.53;;;2.40;;
7166;SDS011;3625;51.762;14.320;2023-07-13T01:24:38;2.28;;;2.08;;
7166;SDS011;3625;51.762;14.320;2023-07-13T01:27:11;2.20;;;2.10;;
7166;SDS011;3625;51.762;14.320;2023-07-13T01:29:45;2.67;;;2.10;;
7166;SDS011;3625;51.762;14.320;2023-07-13T01:32:15;3.38;;;2.30;;
7166;SDS011;3625;51.762;14.320;2023-07-13T01:34:49;2.25;;;2.05;;
7166;SDS011;3625;51.762;14.320;2023-07-13T01:37:22;2.60;;;2.10;;
7166;SDS011;3625;51.762;14.320;2023-07-13T01:39:53;3.17;;;1.95;;
7166;SDS011;3625;51.762;14.320;2023-07-13T01:42:21;2.60;;;1.90;;
7166;SDS011;3625;51.762;14.320;2023-07-13T01:44:50;2.85;;;2.63;;
7166;SDS011;3625;51.762;14.320;2023-07-13T01:47:18;3.70;;;2.38;;
7166;SDS011;3625;51.762;14.320;2023-07-13T01:49:47;3.05;;;2.15;;
7166;SDS011;3625;51.762;14.320;2023-07-13T01:52:18;2.47;;;2.03;;
7166;SDS011;3625;51.762;14.320;2023-07-13T01:54:48;2.80;;;2.20;;
7166;SDS011;3625;51.762;14.320;2023-07-13T01:57:16;2.15;;;1.90;;
7166;SDS011;3625;51.762;14.320;2023-07-13T01:59:45;2.55;;;2.30;;
7166;SDS011;3625;51.762;14.320;2023-07-13T02:02:14;4.28;;;2.25;;
7166;SDS011;3625;51.762;14.320;2023-07-13T02:04:42;2.10;;;1.90;;
7166;SDS011;3625;51.762;14.320;2023-07-13T02:07:11;2.45;;;2.25;;
7166;SDS011;3625;51.762;14.320;2023-07-13T02:09:41;3.80;;;2.25;;
7166;SDS011;3625;51.762;14.320;2023-07-13T02:12:11;3.00;;;2.50;;
7166;SDS011;3625;51.762;14.320;2023-07-13T02:14:40;2.83;;;2.00;;
7166;SDS011;3625;51.762;14.320;2023-07-13T02:17:09;2.40;;;2.20;;
7166;SDS011;3625;51.762;14.320;2023-07-13T02:19:38;3.45;;;2.40;;
7166;SDS011;3625;51.762;14.320;2023-07-13T02:22:07;2.42;;;2.22;;
7166;SDS011;3625;51.762;14.320;2023-07-13T02:24:35;2.75;;;2.22;;
7166;SDS011;3625;51.762;14.320;2023-07-13T02:27:04;2.25;;;2.05;;
7166;SDS011;3625;51.762;14.320;2023-07-13T02:29:35;2.45;;;2.20;;
7166;SDS011;3625;51.762;14.320;2023-07-13T02:32:04;2.97;;;2.67;;
7166;SDS011;3625;51.762;14.320;2023-07-13T02:34:33;3.25;;;2.65;;
7166;SDS011;3625;51.762;14.320;2023-07-13T02:37:03;2.50;;;2.28;;
7166;SDS011;3625;51.762;14.320;2023-07-13T02:39:33;2.40;;;2.20;;
7166;SDS011;3625;51.762;14.320;2023-07-13T02:42:02;2.88;;;2.50;;
7166;SDS011;3625;51.762;14.320;2023-07-13T02:44:32;2.58;;;1.90;;
7166;SDS011;3625;51.762;14.320;2023-07-13T02:47:02;2.40;;;2.17;;
7166;SDS011;3625;51.762;14.320;2023-07-13T02:49:30;2.58;;;2.35;;
7166;SDS011;3625;51.762;14.320;2023-07-13T02:51:59;2.22;;;2.13;;
7166;SDS011;3625;51.762;14.320;2023-07-13T02:54:27;3.38;;;2.33;;
7166;SDS011;3625;51.762;14.320;2023-07-13T02:56:56;3.83;;;2.35;;
7166;SDS011;3625;51.762;14.320;2023-07-13T02:59:24;2.50;;;2.30;;
7166;SDS011;3625;51.762;14.320;2023-07-13T03:01:53;2.38;;;2.10;;
7166;SDS011;3625;51.762;14.320;2023-07-13T03:04:23;3.47;;;2.50;;
7166;SDS011;3625;51.762;14.320;2023-07-13T03:06:52;2.40;;;2.20;;
7166;SDS011;3625;51.762;14.320;2023-07-13T03:09:30;2.40;;;2.30;;
7166;SDS011;3625;51.762;14.320;2023-07-13T03:12:06;3.63;;;2.50;;
7166;SDS011;3625;51.762;14.320;2023-07-13T03:14:36;3.85;;;2.65;;
7166;SDS011;3625;51.762;14.320;2023-07-13T03:17:06;4.00;;;2.50;;
7166;SDS011;3625;51.762;14.320;2023-07-13T03:19:39;3.47;;;2.50;;
7166;SDS011;3625;51.762;14.320;2023-07-13T03:22:08;3.80;;;2.50;;
7166;SDS011;3625;51.762;14.320;2023-07-13T03:24:38;3.80;;;2.85;;
7166;SDS011;3625;51.762;14.320;2023-07-13T03:27:07;2.70;;;2.50;;
7166;SDS011;3625;51.762;14.320;2023-07-13T03:29:39;3.03;;;2.67;;
7166;SDS011;3625;51.762;14.320;2023-07-13T03:32:08;2.90;;;2.70;;
7166;SDS011;3625;51.762;14.320;2023-07-13T03:34:38;3.72;;;2.95;;
7166;SDS011;3625;51.762;14.320;2023-07-13T03:37:07;3.10;;;2.53;;
7166;SDS011;3625;51.762;14.320;2023-07-13T03:39:36;2.67;;;2.47;;
7166;SDS011;3625;51.762;14.320;2023-07-13T03:42:05;2.63;;;2.40;;
7166;SDS011;3625;51.762;14.320;2023-07-13T03:44:34;3.45;;;2.70;;
7166;SDS011;3625;51.762;14.320;2023-07-13T03:47:03;3.50;;;2.60;;
7166;SDS011;3625;51.762;14.320;2023-07-13T03:49:35;4.43;;;2.70;;
7166;SDS011;3625;51.762;14.320;2023-07-13T03:52:06;3.70;;;2.35;;
7166;SDS011;3625;51.762;14.320;2023-07-13T03:54:34;3.08;;;2.70;;
7166;SDS011;3625;51.762;14.320;2023-07-13T03:57:04;3.30;;;3.00;;
7166;SDS011;3625;51.762;14.320;2023-07-13T03:59:35;3.08;;;2.83;;
7166;SDS011;3625;51.762;14.320;2023-07-13T04:02:03;3.40;;;2.33;;
7166;SDS011;3625;51.762;14.320;2023-07-13T04:04:33;3.42;;;2.60;;
7166;SDS011;3625;51.762;14.320;2023-07-13T04:07:02;2.65;;;2.45;;
7166;SDS011;3625;51.762;14.320;2023-07-13T04:09:33;3.50;;;2.80;;
7166;SDS011;3625;51.762;14.320;2023-07-13T04:12:02;2.60;;;2.40;;
7166;SDS011;3625;51.762;14.320;2023-07-13T04:14:32;5.30;;;2.60;;
7166;SDS011;3625;51.762;14.320;2023-07-13T04:17:01;3.72;;;2.78;;
7166;SDS011;3625;51.762;14.320;2023-07-13T04:19:30;2.35;;;2.15;;
7166;SDS011;3625;51.762;14.320;2023-07-13T04:21:58;4.53;;;3.20;;
7166;SDS011;3625;51.762;14.320;2023-07-13T04:24:28;4.45;;;2.90;;
7166;SDS011;3625;51.762;14.320;2023-07-13T04:26:57;5.68;;;2.92;;
7166;SDS011;3625;51.762;14.320;2023-07-13T04:29:26;3.00;;;2.70;;
7166;SDS011;3625;51.762;14.320;2023-07-13T04:31:54;4.28;;;2.50;;
7166;SDS011;3625;51.762;14.320;2023-07-13T04:34:23;3.03;;;2.28;;
7166;SDS011;3625;51.762;14.320;2023-07-13T04:36:52;3.75;;;2.70;;
7166;SDS011;3625;51.762;14.320;2023-07-13T04:39:21;4.50;;;2.70;;
7166;SDS011;3625;51.762;14.320;2023-07-13T04:41:52;2.90;;;2.67;;
7166;SDS011;3625;51.762;14.320;2023-07-13T04:44:22;4.18;;;2.60;;
7166;SDS011;3625;51.762;14.320;2023-07-13T04:46:51;3.35;;;2.75;;
7166;SDS011;3625;51.762;14.320;2023-07-13T04:49:20;3.45;;;2.60;;
7166;SDS011;3625;51.762;14.320;2023-07-13T04:51:48;3.55;;;3.00;;
7166;SDS011;3625;51.762;14.320;2023-07-13T04:54:17;3.35;;;2.67;;
7166;SDS011;3625;51.762;14.320;2023-07-13T04:56:45;2.95;;;2.63;;
7166;SDS011;3625;51.762;14.320;2023-07-13T04:59:15;2.90;;;2.70;;
7166;SDS011;3625;51.762;14.320;2023-07-13T05:01:44;2.85;;;2.65;;
7166;SDS011;3625;51.762;14.320;2023-07-13T05:04:13;2.83;;;2.63;;
7166;SDS011;3625;51.762;14.320;2023-07-13T05:06:42;3.50;;;2.97;;
7166;SDS011;3625;51.762;14.320;2023-07-13T05:09:10;3.05;;;2.80;;
7166;SDS011;3625;51.762;14.320;2023-07-13T05:11:40;3.53;;;3.22;;
7166;SDS011;3625;51.762;14.320;2023-07-13T05:14:08;4.05;;;3.10;;
7166;SDS011;3625;51.762;14.320;2023-07-13T05:16:38;3.03;;;2.75;;
7166;SDS011;3625;51.762;14.320;2023-07-13T05:19:07;4.38;;;2.60;;
7166;SDS011;3625;51.762;14.320;2023-07-13T05:21:37;3.15;;;2.92;;
7166;SDS011;3625;51.762;14.320;2023-07-13T05:24:07;6.10;;;3.38;;
7166;SDS011;3625;51.762;14.320;2023-07-13T05:26:50;4.63;;;3.00;;
7166;SDS011;3625;51.762;14.320;2023-07-13T05:29:26;2.85;;;2.63;;
7166;SDS011;3625;51.762;14.320;2023-07-13T05:31:56;3.20;;;2.88;;
7166;SDS011;3625;51.762;14.320;2023-07-13T05:34:25;3.65;;;2.67;;
7166;SDS011;3625;51.762;14.320;2023-07-13T05:36:56;3.00;;;2.80;;
7166;SDS011;3625;51.762;14.320;2023-07-13T05:39:25;3.40;;;2.88;;
7166;SDS011;3625;51.762;14.320;2023-07-13T05:41:54;5.22;;;2.83;;
7166;SDS011;3625;51.762;14.320;2023-07-13T05:44:22;3.83;;;3.42;;
7166;SDS011;3625;51.762;14.320;2023-07-13T05:46:51;3.03;;;2.72;;
7166;SDS011;3625;51.762;14.320;2023-07-13T05:49:21;3.53;;;2.60;;
7166;SDS011;3625;51.762;14.320;2023-07-13T05:51:51;4.00;;;3.03;;
7166;SDS011;3625;51.762;14.320;2023-07-13T05:54:20;4.25;;;3.00;;
7166;SDS011;3625;51.762;14.320;2023-07-13T05:56:48;5.25;;;2.90;;
7166;SDS011;3625;51.762;14.320;2023-07-13T05:59:17;3.65;;;3.00;;
7166;SDS011;3625;51.762;14.320;2023-07-13T06:01:46;2.83;;;2.45;;
7166;SDS011;3625;51.762;14.320;2023-07-13T06:04:14;2.80;;;2.58;;
7166;SDS011;3625;51.762;14.320;2023-07-13T06:06:44;2.90;;;2.60;;
7166;SDS011;3625;51.762;14.320;2023-07-13T06:09:16;4.03;;;2.47;;
7166;SDS011;3625;51.762;14.320;2023-07-13T06:11:45;2.83;;;2.50;;
7166;SDS011;3625;51.762;14.320;2023-07-13T06:14:14;3.33;;;2.95;;
7166;SDS011;3625;51.762;14.320;2023-07-13T06:16:43;4.50;;;2.65;;
7166;SDS011;3625;51.762;14.320;2023-07-13T06:19:13;5.38;;;2.83;;
7166;SDS011;3625;51.762;14.320;2023-07-13T06:21:43;2.58;;;2.38;;
7166;SDS011;3625;51.762;14.320;2023-07-13T06:24:14;5.20;;;3.42;;
7166;SDS011;3625;51.762;14.320;2023-07-13T06:26:44;3.50;;;2.53;;
7166;SDS011;3625;51.762;14.320;2023-07-13T06:29:13;2.50;;;2.28;;
7166;SDS011;3625;51.762;14.320;2023-07-13T06:31:43;2.45;;;2.10;;
7166;SDS011;3625;51.762;14.320;2023-07-13T06:34:19;3.63;;;2.42;;
7166;SDS011;3625;51.762;14.320;2023-07-13T06:36:49;2.35;;;2.15;;
7166;SDS011;3625;51.762;14.320;2023-07-13T06:39:20;2.83;;;2.40;;
7166;SDS011;3625;51.762;14.320;2023-07-13T06:41:50;3.80;;;2.45;;
7166;SDS011;3625;51.762;14.320;2023-07-13T06:44:18;3.63;;;2.97;;
7166;SDS011;3625;51.762;14.320;2023-07-13T06:46:47;2.40;;;2.20;;
7166;SDS011;3625;51.762;14.320;2023-07-13T06:49:18;3.30;;;2.10;;
7166;SDS011;3625;51.762;14.320;2023-07-13T06:51:53;2.63;;;2.25;;
7166;SDS011;3625;51.762;14.320;2023-07-13T06:54:23;2.85;;;2.20;;
7166;SDS011;3625;51.762;14.320;2023-07-13T06:56:56;3.90;;;2.53;;
7166;SDS011;3625;51.762;14.320;2023-07-13T06:59:26;3.38;;;2.35;;
7166;SDS011;3625;51.762;14.320;2023-07-13T07:01:55;3.00;;;2.25;;
7166;SDS011;3625;51.762;14.320;2023-07-13T07:04:24;3.70;;;2.22;;
7166;SDS011;3625;51.762;14.320;2023-07-13T07:06:55;5.22;;;2.45;;
7166;SDS011;3625;51.762;14.320;2023-07-13T07:09:25;3.13;;;2.67;;
7166;SDS011;3625;51.762;14.320;2023-07-13T07:11:56;3.95;;;2.50;;
7166;SDS011;3625;51.762;14.320;2023-07-13T07:14:30;3.47;;;2.75;;
7166;SDS011;3625;51.762;14.320;2023-07-13T07:17:00;3.50;;;2.40;;
7166;SDS011;3625;51.762;14.320;2023-07-13T07:19:30;4.55;;;2.25;;
7166;SDS011;3625;51.762;14.320;2023-07-13T07:22:00;2.42;;;2.08;;
7166;SDS011;3625;51.762;14.320;2023-07-13T07:24:30;2.92;;;1.95;;
7166;SDS011;3625;51.762;14.320;2023-07-13T07:26:58;3.67;;;2.28;;
7166;SDS011;3625;51.762;14.320;2023-07-13T07:29:30;3.10;;;1.83;;
7166;SDS011;3625;51.762;14.320;2023-07-13T07:32:02;1.90;;;1.70;;
7166;SDS011;3625;51.762;14.320;2023-07-13T07:34:51;3.05;;;1.83;;
7166;SDS011;3625;51.762;14.320;2023-07-13T07:37:21;3.08;;;2.08;;
7166;SDS011;3625;51.762;14.320;2023-07-13T07:40:10;3.50;;;1.67;;
7166;SDS011;3625;51.762;14.320;2023-07-13T07:42:42;2.58;;;1.70;;
7166;SDS011;3625;51.762;14.320;2023-07-13T07:45:10;3.53;;;2.30;;
7166;SDS011;3625;51.762;14.320;2023-07-13T07:47:40;3.67;;;1.90;;
7166;SDS011;3625;51.762;14.320;2023-07-13T07:50:09;2.45;;;1.70;;
7166;SDS011;3625;51.762;14.320;2023-07-13T07:52:40;1.95;;;1.75;;
7166;SDS011;3625;51.762;14.320;2023-07-13T07:55:09;3.30;;;1.63;;
7166;SDS011;3625;51.762;14.320;2023-07-13T07:57:41;3.17;;;1.50;;
7166;SDS011;3625;51.762;14.320;2023-07-13T08:00:13;3.25;;;1.70;;
7166;SDS011;3625;51.762;14.320;2023-07-13T08:02:46;2.25;;;1.63;;
7166;SDS011;3625;51.762;14.320;2023-07-13T08:05:18;1.80;;;1.58;;
7166;SDS011;3625;51.762;14.320;2023-07-13T08:08:06;4.22;;;1.85;;
7166;SDS011;3625;51.762;14.320;2023-07-13T08:10:35;2.47;;;1.60;;
7166;SDS011;3625;51.762;14.320;2023-07-13T08:13:04;4.43;;;1.95;;
7166;SDS011;3625;51.762;14.320;2023-07-13T08:15:36;1.73;;;1.50;;
7166;SDS011;3625;51.762;14.320;2023-07-13T08:18:05;3.47;;;1.63;;
7166;SDS011;3625;51.762;14.320;2023-07-13T08:20:36;3.08;;;1.48;;
7166;SDS011;3625;51.762;14.320;2023-07-13T08:23:07;2.72;;;1.70;;
7166;SDS011;3625;51.762;14.320;2023-07-13T08:25:37;4.40;;;1.48;;
7166;SDS011;3625;51.762;14.320;2023-07-13T08:28:06;2.83;;;1.98;;
7166;SDS011;3625;51.762;14.320;2023-07-13T08:30:35;5.13;;;1.55;;
7166;SDS011;3625;51.762;14.320;2023-07-13T08:33:04;6.93;;;2.00;;
7166;SDS011;3625;51.762;14.320;2023-07-13T08:35:32;3.22;;;1.73;;
7166;SDS011;3625;51.762;14.320;2023-07-13T08:38:01;1.88;;;1.25;;
7166;SDS011;3625;51.762;14.320;2023-07-13T08:40:31;3.38;;;1.70;;
7166;SDS011;3625;51.762;14.320;2023-07-13T08:43:02;2.50;;;1.58;;
7166;SDS011;3625;51.762;14.320;2023-07-13T08:45:43;2.05;;;1.50;;
7166;SDS011;3625;51.762;14.320;2023-07-13T08:48:18;2.63;;;1.52;;
7166;SDS011;3625;51.762;14.320;2023-07-13T08:50:55;2.63;;;1.65;;
7166;SDS011;3625;51.762;14.320;2023-07-13T08:53:34;3.22;;;1.75;;
7166;SDS011;3625;51.762;14.320;2023-07-13T08:56:16;2.35;;;1.77;;
7166;SDS011;3625;51.762;14.320;2023-07-13T08:58:50;3.60;;;1.60;;
7166;SDS011;3625;51.762;14.320;2023-07-13T09:01:28;2.95;;;1.63;;
7166;SDS011;3625;51.762;14.320;2023-07-13T09:04:12;2.53;;;1.60;;
7166;SDS011;3625;51.762;14.320;2023-07-13T09:06:46;2.53;;;1.55;;
7166;SDS011;3625;51.762;14.320;2023-07-13T09:09:33;3.30;;;1.83;;
7166;SDS011;3625;51.762;14.320;2023-07-13T09:12:17;2.30;;;1.42;;
7166;SDS011;3625;51.762;14.320;2023-07-13T09:14:55;3.17;;;1.65;;
7166;SDS011;3625;51.762;14.320;2023-07-13T09:17:28;2.35;;;1.73;;
7166;SDS011;3625;51.762;14.320;2023-07-13T09:20:04;2.00;;;1.80;;
7166;SDS011;3625;51.762;14.320;2023-07-13T09:22:45;3.10;;;1.90;;
7166;SDS011;3625;51.762;14.320;2023-07-13T09:25:20;2.67;;;1.80;;
7166;SDS011;3625;51.762;14.320;2023-07-13T09:27:59;3.50;;;1.77;;
7166;SDS011;3625;51.762;14.320;2023-07-13T09:30:43;4.13;;;2.00;;
7166;SDS011;3625;51.762;14.320;2023-07-13T09:33:20;2.25;;;1.70;;
7166;SDS011;3625;51.762;14.320;2023-07-13T09:35:50;2.28;;;1.83;;
7166;SDS011;3625;51.762;14.320;2023-07-13T09:38:19;2.78;;;1.80;;
7166;SDS011;3625;51.762;14.320;2023-07-13T09:41:04;2.70;;;1.58;;
7166;SDS011;3625;51.762;14.320;2023-07-13T09:44:06;3.97;;;1.83;;
7166;SDS011;3625;51.762;14.320;2023-07-13T09:46:39;3.53;;;1.90;;
7166;SDS011;3625;51.762;14.320;2023-07-13T09:49:15;2.88;;;1.80;;
7166;SDS011;3625;51.762;14.320;2023-07-13T09:51:45;2.47;;;1.83;;
7166;SDS011;3625;51.762;14.320;2023-07-13T09:54:20;2.03;;;1.48;;
7166;SDS011;3625;51.762;14.320;2023-07-13T09:56:55;1.83;;;1.52;;
7166;SDS011;3625;51.762;14.320;2023-07-13T09:59:29;1.95;;;1.67;;
7166;SDS011;3625;51.762;14.320;2023-07-13T10:02:01;3.10;;;1.80;;
7166;SDS011;3625;51.762;14.320;2023-07-13T10:04:54;3.05;;;1.67;;
7166;SDS011;3625;51.762;14.320;2023-07-13T10:07:25;2.45;;;1.98;;
7166;SDS011;3625;51.762;14.320;2023-07-13T10:09:56;2.35;;;1.60;;
7166;SDS011;3625;51.762;14.320;2023-07-13T10:12:29;1.55;;;1.40;;
7166;SDS011;3625;51.762;14.320;2023-07-13T10:15:13;5.63;;;1.60;;
7166;SDS011;3625;51.762;14.320;2023-07-13T10:17:51;2.53;;;1.52;;
7166;SDS011;3625;51.762;14.320;2023-07-13T10:20:25;1.73;;;1.38;;
7166;SDS011;3625;51.762;14.320;2023-07-13T10:22:56;3.33;;;1.90;;
7166;SDS011;3625;51.762;14.320;2023-07-13T10:25:30;2.67;;;1.65;;
7166;SDS011;3625;51.762;14.320;2023-07-13T10:28:03;1.60;;;1.40;;
7166;SDS011;3625;51.762;14.320;2023-07-13T10:30:51;3.25;;;1.77;;
7166;SDS011;3625;51.762;14.320;2023-07-13T10:33:24;3.05;;;1.45;;
7166;SDS011;3625;51.762;14.320;2023-07-13T10:35:54;2.10;;;1.58;;
7166;SDS011;3625;51.762;14.320;2023-07-13T10:38:33;2.15;;;1.70;;
7166;SDS011;3625;51.762;14.320;2023-07-13T10:41:06;3.65;;;1.50;;
7166;SDS011;3625;51.762;14.320;2023-07-13T10:43:41;1.60;;;1.30;;
7166;SDS011;3625;51.762;14.320;2023-07-13T10:46:18;1.77;;;1.20;;
7166;SDS011;3625;51.762;14.320;2023-07-13T10:48:54;2.40;;;1.60;;
7166;SDS011;3625;51.762;14.320;2023-07-13T10:51:27;2.42;;;1.52;;
7166;SDS011;3625;51.762;14.320;2023-07-13T10:54:11;2.00;;;1.20;;
7166;SDS011;3625;51.762;14.320;2023-07-13T10:57:06;1.88;;;1.30;;
7166;SDS011;3625;51.762;14.320;2023-07-13T10:59:45;2.35;;;1.40;;
7166;SDS011;3625;51.762;14.320;2023-07-13T11:02:23;2.50;;;1.58;;
7166;SDS011;3625;51.762;14.320;2023-07-13T11:04:55;2.75;;;1.50;;
7166;SDS011;3625;51.762;14.320;2023-07-13T11:07:26;2.03;;;1.30;;
7166;SDS011;3625;51.762;14.320;2023-07-13T11:09:57;2.78;;;1.40;;
7166;SDS011;3625;51.762;14.320;2023-07-13T11:12:29;2.40;;;1.70;;
7166;SDS011;3625;51.762;14.320;2023-07-13T11:15:38;1.98;;;1.30;;
7166;SDS011;3625;51.762;14.320;2023-07-13T11:18:23;2.50;;;1.25;;
7166;SDS011;3625;51.762;14.320;2023-07-13T11:20:52;2.90;;;1.25;;
7166;SDS011;3625;51.762;14.320;2023-07-13T11:24:01;2.42;;;1.33;;
7166;SDS011;3625;51.762;14.320;2023-07-13T11:26:39;2.92;;;1.48;;
7166;SDS011;3625;51.762;14.320;2023-07-13T11:29:15;2.80;;;1.58;;
7166;SDS011;3625;51.762;14.320;2023-07-13T11:32:00;2.47;;;1.70;;
7166;SDS011;3625;51.762;14.320;2023-07-13T11:34:51;1.55;;;1.30;;
7166;SDS011;3625;51.762;14.320;2023-07-13T11:37:22;1.42;;;1.20;;
7166;SDS011;3625;51.762;14.320;2023-07-13T11:39:52;1.77;;;1.35;;
7166;SDS011;3625;51.762;14.320;2023-07-13T11:42:21;2.05;;;1.40;;
7166;SDS011;3625;51.762;14.320;2023-07-13T11:44:50;3.70;;;1.52;;
7166;SDS011;3625;51.762;14.320;2023-07-13T11:47:39;4.25;;;1.60;;
7166;SDS011;3625;51.762;14.320;2023-07-13T11:50:18;2.00;;;1.23;;
7166;SDS011;3625;51.762;14.320;2023-07-13T11:52:48;1.92;;;1.40;;
7166;SDS011;3625;51.762;14.320;2023-07-13T11:55:20;2.20;;;1.50;;
7166;SDS011;3625;51.762;14.320;2023-07-13T11:57:54;2.20;;;1.38;;
7166;SDS011;3625;51.762;14.320;2023-07-13T12:00:28;1.90;;;1.20;;
7166;SDS011;3625;51.762;14.320;2023-07-13T12:03:01;3.70;;;1.30;;
7166;SDS011;3625;51.762;14.320;2023-07-13T12:05:34;2.10;;;1.33;;
7166;SDS011;3625;51.762;14.320;2023-07-13T12:08:08;2.15;;;1.60;;
7166;SDS011;3625;51.762;14.320;2023-07-13T12:10:55;2.13;;;1.30;;
7166;SDS011;3625;51.762;14.320;2023-07-13T12:13:27;3.17;;;1.50;;
7166;SDS011;3625;51.762;14.320;2023-07-13T12:15:56;2.63;;;1.52;;
7166;SDS011;3625;51.762;14.320;2023-07-13T12:18:28;2.88;;;1.40;;
7166;SDS011;3625;51.762;14.320;2023-07-13T12:21:02;3.78;;;1.67;;
7166;SDS011;3625;51.762;14.320;2023-07-13T12:23:31;1.83;;;1.50;;
7166;SDS011;3625;51.762;14.320;2023-07-13T12:26:03;3.22;;;1.52;;
7166;SDS011;3625;51.762;14.320;2023-07-13T12:28:37;1.77;;;1.30;;
7166;SDS011;3625;51.762;14.320;2023-07-13T12:31:22;2.22;;;1.40;;
7166;SDS011;3625;51.762;14.320;2023-07-13T12:34:00;2.83;;;1.45;;
7166;SDS011;3625;51.762;14.320;2023-07-13T12:36:35;3.08;;;1.30;;
7166;SDS011;3625;51.762;14.320;2023-07-13T12:39:13;2.30;;;1.38;;
7166;SDS011;3625;51.762;14.320;2023-07-13T12:41:46;1.55;;;1.25;;
7166;SDS011;3625;51.762;14.320;2023-07-13T12:44:17;2.10;;;1.40;;
7166;SDS011;3625;51.762;14.320;2023-07-13T12:46:53;2.03;;;1.50;;
7166;SDS011;3625;51.762;14.320;2023-07-13T12:49:27;1.80;;;1.35;;
7166;SDS011;3625;51.762;14.320;2023-07-13T12:52:04;2.00;;;1.42;;
7166;SDS011;3625;51.762;14.320;2023-07-13T12:54:51;2.25;;;1.20;;
7166;SDS011;3625;51.762;14.320;2023-07-13T12:57:32;1.88;;;1.48;;
7166;SDS011;3625;51.762;14.320;2023-07-13T13:00:18;2.17;;;1.50;;
7166;SDS011;3625;51.762;14.320;2023-07-13T13:02:52;2.25;;;1.55;;
7166;SDS011;3625;51.762;14.320;2023-07-13T13:05:44;3.63;;;1.40;;
7166;SDS011;3625;51.762;14.320;2023-07-13T13:08:15;1.98;;;1.35;;
7166;SDS011;3625;51.762;14.320;2023-07-13T13:10:43;2.40;;;1.40;;
7166;SDS011;3625;51.762;14.320;2023-07-13T13:13:13;2.55;;;1.33;;
7166;SDS011;3625;51.762;14.320;2023-07-13T13:15:42;2.53;;;1.50;;
7166;SDS011;3625;51.762;14.320;2023-07-13T13:18:15;2.85;;;1.58;;
7166;SDS011;3625;51.762;14.320;2023-07-13T13:20:46;1.60;;;1.30;;
7166;SDS011;3625;51.762;14.320;2023-07-13T13:23:17;2.45;;;1.40;;
7166;SDS011;3625;51.762;14.320;2023-07-13T13:25:50;3.65;;;1.40;;
7166;SDS011;3625;51.762;14.320;2023-07-13T13:28:19;2.80;;;1.70;;
7166;SDS011;3625;51.762;14.320;2023-07-13T13:30:50;2.75;;;1.65;;
7166;SDS011;3625;51.762;14.320;2023-07-13T13:33:20;1.63;;;1.20;;
7166;SDS011;3625;51.762;14.320;2023-07-13T13:35:49;2.55;;;1.40;;
7166;SDS011;3625;51.762;14.320;2023-07-13T13:38:20;2.65;;;1.48;;
7166;SDS011;3625;51.762;14.320;2023-07-13T13:40:53;3.28;;;1.20;;
7166;SDS011;3625;51.762;14.320;2023-07-13T13:43:23;3.03;;;1.52;;
7166;SDS011;3625;51.762;14.320;2023-07-13T13:45:55;2.97;;;1.20;;
7166;SDS011;3625;51.762;14.320;2023-07-13T13:48:29;3.60;;;1.67;;
7166;SDS011;3625;51.762;14.320;2023-07-13T13:51:00;2.05;;;1.27;;
7166;SDS011;3625;51.762;14.320;2023-07-13T13:53:41;2.92;;;1.52;;
7166;SDS011;3625;51.762;14.320;2023-07-13T13:56:11;2.22;;;1.60;;
7166;SDS011;3625;51.762;14.320;2023-07-13T13:58:41;2.47;;;1.45;;
7166;SDS011;3625;51.762;14.320;2023-07-13T14:01:11;3.20;;;1.45;;
7166;SDS011;3625;51.762;14.320;2023-07-13T14:03:44;2.80;;;1.50;;
7166;SDS011;3625;51.762;14.320;2023-07-13T14:06:15;3.00;;;1.40;;
7166;SDS011;3625;51.762;14.320;2023-07-13T14:08:45;4.30;;;1.50;;
7166;SDS011;3625;51.762;14.320;2023-07-13T14:11:17;1.85;;;1.42;;
7166;SDS011;3625;51.762;14.320;2023-07-13T14:13:48;1.25;;;1.13;;
7166;SDS011;3625;51.762;14.320;2023-07-13T14:16:22;2.42;;;1.50;;
7166;SDS011;3625;51.762;14.320;2023-07-13T14:18:58;2.63;;;1.40;;
7166;SDS011;3625;51.762;14.320;2023-07-13T14:21:28;2.08;;;1.42;;
7166;SDS011;3625;51.762;14.320;2023-07-13T14:24:00;3.08;;;1.42;;
7166;SDS011;3625;51.762;14.320;2023-07-13T14:26:29;1.80;;;1.40;;
7166;SDS011;3625;51.762;14.320;2023-07-13T14:29:05;2.42;;;1.30;;
7166;SDS011;3625;51.762;14.320;2023-07-13T14:31:41;2.53;;;1.35;;
7166;SDS011;3625;51.762;14.320;2023-07-13T14:34:11;4.85;;;1.50;;
7166;SDS011;3625;51.762;14.320;2023-07-13T14:36:41;3.53;;;1.48;;
7166;SDS011;3625;51.762;14.320;2023-07-13T14:39:15;1.85;;;1.30;;
7166;SDS011;3625;51.762;14.320;2023-07-13T14:41:46;2.28;;;1.30;;
7166;SDS011;3625;51.762;14.320;2023-07-13T14:44:20;1.83;;;1.30;;
7166;SDS011;3625;51.762;14.320;2023-07-13T14:46:52;2.90;;;1.25;;
7166;SDS011;3625;51.762;14.320;2023-07-13T14:49:23;3.65;;;1.35;;
7166;SDS011;3625;51.762;14.320;2023-07-13T14:51:57;4.22;;;1.80;;
7166;SDS011;3625;51.762;14.320;2023-07-13T14:54:35;1.70;;;1.50;;
7166;SDS011;3625;51.762;14.320;2023-07-13T14:57:08;3.05;;;1.60;;
7166;SDS011;3625;51.762;14.320;2023-07-13T14:59:39;2.05;;;1.35;;
7166;SDS011;3625;51.762;14.320;2023-07-13T15:02:14;2.38;;;1.20;;
7166;SDS011;3625;51.762;14.320;2023-07-13T15:04:46;3.63;;;1.60;;
7166;SDS011;3625;51.762;14.320;2023-07-13T15:07:14;1.50;;;1.33;;
7166;SDS011;3625;51.762;14.320;2023-07-13T15:09:46;2.15;;;1.40;;
7166;SDS011;3625;51.762;14.320;2023-07-13T15:12:15;2.85;;;1.42;;
7166;SDS011;3625;51.762;14.320;2023-07-13T15:14:44;3.50;;;1.20;;
7166;SDS011;3625;51.762;14.320;2023-07-13T15:17:17;2.03;;;1.20;;
7166;SDS011;3625;51.762;14.320;2023-07-13T15:19:57;3.10;;;1.60;;
7166;SDS011;3625;51.762;14.320;2023-07-13T15:22:26;2.20;;;1.33;;
7166;SDS011;3625;51.762;14.320;2023-07-13T15:24:57;1.98;;;1.27;;
7166;SDS011;3625;51.762;14.320;2023-07-13T15:27:30;3.63;;;1.08;;
7166;SDS011;3625;51.762;14.320;2023-07-13T15:29:59;1.95;;;1.23;;
7166;SDS011;3625;51.762;14.320;2023-07-13T15:32:28;1.67;;;1.50;;
7166;SDS011;3625;51.762;14.320;2023-07-13T15:34:56;2.85;;;1.30;;